Live aus Altenrhein
LIVE
LSZR 250420Z AUTO VRB02KT CAVOK 12/10 Q1022

People´s Info Center:

Öffnungszeiten Mo-Fr, 8-18 Uhr

 

info@peoples.ch

 
Aus Österreich:

T: +43 (0)5572 203 610

 

Aus CH / LI / DE:

T: +41 (0)71 858 51 60

 

Wie kann ich meinen Flug buchen?

 

Ihren Flug mit People's Viennaline können Sie über das People's Info Center (info@peoples.ch, +41 71 858 51 60 oder +43 5572 203 610), online über die Website www.peoples.ch/flug-buchen, über ein Reisebüro, über einen Reiseveranstalter oder direkt am Ticketschalter am Flughafen Altenrhein und Wien buchen.